createdAt,value
2023-02-24T00:01:54.065Z,4.78
2023-02-24T00:04:20.702Z,4.72
2023-02-24T00:06:47.258Z,4.74
2023-02-24T00:09:14.561Z,4.69
2023-02-24T00:11:41.821Z,4.68
2023-02-24T00:14:08.549Z,4.66
2023-02-24T00:16:35.080Z,4.58
2023-02-24T00:19:02.935Z,4.52
2023-02-24T00:21:29.760Z,4.46
2023-02-24T00:23:56.734Z,4.44
2023-02-24T00:26:23.046Z,4.47
2023-02-24T00:28:49.360Z,4.45
2023-02-24T00:31:16.833Z,4.45
2023-02-24T00:33:43.968Z,4.41
2023-02-24T00:36:13.162Z,4.46
2023-02-24T00:38:40.218Z,4.48
2023-02-24T00:41:10.133Z,4.48
2023-02-24T00:43:36.430Z,4.44
2023-02-24T00:46:02.797Z,4.43
2023-02-24T00:48:29.125Z,4.54
2023-02-24T00:50:55.456Z,4.58
2023-02-24T00:53:23.081Z,4.57
2023-02-24T00:55:58.244Z,4.59
2023-02-24T00:58:24.593Z,4.60
2023-02-24T01:00:50.869Z,4.61
2023-02-24T01:03:17.183Z,4.66
2023-02-24T01:05:43.493Z,4.77
2023-02-24T01:08:10.132Z,4.72
2023-02-24T01:10:37.795Z,4.66
2023-02-24T01:13:04.122Z,4.67
2023-02-24T01:15:30.504Z,4.79
2023-02-24T01:17:56.815Z,4.73
2023-02-24T01:20:23.101Z,4.72
2023-02-24T01:22:50.527Z,4.68
2023-02-24T01:25:16.892Z,4.75
2023-02-24T01:27:44.509Z,4.88
2023-02-24T01:30:11.701Z,4.79
2023-02-24T01:32:38.216Z,4.82
2023-02-24T01:35:04.958Z,4.84
2023-02-24T01:37:31.338Z,4.88
2023-02-24T01:39:57.661Z,4.91
2023-02-24T01:42:23.940Z,4.90
2023-02-24T01:45:11.721Z,4.83
2023-02-24T01:47:38.316Z,4.77
2023-02-24T01:50:05.061Z,4.72
2023-02-24T01:52:34.521Z,4.83
2023-02-24T01:55:02.952Z,4.70
2023-02-24T01:57:30.674Z,4.70
2023-02-24T01:59:58.373Z,4.63
2023-02-24T02:02:26.120Z,4.68
2023-02-24T02:04:54.997Z,4.57
2023-02-24T02:07:22.051Z,4.58
2023-02-24T02:09:50.117Z,4.68
2023-02-24T02:12:16.401Z,4.69
2023-02-24T02:14:44.094Z,4.56
2023-02-24T02:17:17.026Z,4.50
2023-02-24T02:19:58.210Z,4.50
2023-02-24T02:22:43.704Z,4.55
2023-02-24T02:25:13.700Z,4.51
2023-02-24T02:27:51.801Z,4.58
2023-02-24T02:30:34.089Z,4.57
2023-02-24T02:33:15.321Z,4.50
2023-02-24T02:35:45.610Z,4.49
2023-02-24T02:38:14.401Z,4.49
2023-02-24T02:40:44.427Z,4.48
2023-02-24T02:43:13.740Z,4.51
2023-02-24T02:45:43.651Z,4.53
2023-02-24T02:48:15.460Z,4.53
2023-02-24T02:50:45.628Z,4.57
2023-02-24T02:53:14.299Z,4.55
2023-02-24T02:55:42.029Z,4.54
2023-02-24T02:58:12.025Z,4.53
2023-02-24T03:00:40.718Z,4.52
2023-02-24T03:03:09.419Z,4.56
2023-02-24T03:05:38.380Z,4.60
2023-02-24T03:08:06.920Z,4.57
2023-02-24T03:10:33.760Z,4.58
2023-02-24T03:13:02.351Z,4.59
2023-02-24T03:15:30.416Z,4.59
2023-02-24T03:17:59.066Z,4.50
2023-02-24T03:20:29.375Z,4.47
2023-02-24T03:23:00.821Z,4.47
2023-02-24T03:25:34.830Z,4.51
2023-02-24T03:28:03.946Z,4.50
2023-02-24T03:30:33.716Z,4.51
2023-02-24T03:33:02.336Z,4.54
2023-02-24T03:35:29.807Z,4.58
2023-02-24T03:37:58.220Z,4.52
2023-02-24T03:40:25.114Z,4.51
2023-02-24T03:42:56.944Z,4.49
2023-02-24T03:45:23.320Z,4.52
2023-02-24T03:47:50.539Z,4.52
2023-02-24T03:50:18.053Z,4.60
2023-02-24T03:52:48.410Z,4.61
2023-02-24T03:55:20.971Z,4.60
2023-02-24T03:57:50.983Z,4.58
2023-02-24T04:00:21.103Z,4.56
2023-02-24T04:02:51.001Z,4.55
2023-02-24T04:05:20.616Z,4.57
2023-02-24T04:07:51.401Z,4.57
2023-02-24T04:10:21.785Z,4.55
2023-02-24T04:12:50.449Z,4.56
2023-02-24T04:15:22.394Z,4.55
2023-02-24T04:17:50.364Z,4.48
2023-02-24T04:20:17.925Z,4.54
2023-02-24T04:22:46.712Z,4.54
2023-02-24T04:25:14.424Z,4.52
2023-02-24T04:27:41.706Z,4.53
2023-02-24T04:30:10.523Z,4.55
2023-02-24T04:32:38.820Z,4.55
2023-02-24T04:35:05.831Z,4.51
2023-02-24T04:37:32.418Z,4.48
2023-02-24T04:39:58.745Z,4.45
2023-02-24T04:42:25.106Z,4.48
2023-02-24T04:44:51.491Z,4.48
2023-02-24T04:47:17.811Z,4.49
2023-02-24T04:49:45.436Z,4.52
2023-02-24T04:52:12.064Z,4.62
2023-02-24T04:54:38.475Z,4.59
2023-02-24T04:57:04.806Z,4.58
2023-02-24T04:59:31.237Z,4.55
2023-02-24T05:01:57.551Z,4.52
2023-02-24T05:04:23.846Z,4.57
2023-02-24T05:06:51.508Z,4.56
2023-02-24T05:09:18.302Z,4.52
2023-02-24T05:11:45.601Z,4.53
2023-02-24T05:14:13.464Z,4.47
2023-02-24T05:16:40.158Z,4.44
2023-02-24T05:19:06.461Z,4.43
2023-02-24T05:21:32.784Z,4.43
2023-02-24T05:24:00.686Z,4.45
2023-02-24T05:26:27.123Z,4.44
2023-02-24T05:28:54.722Z,4.43
2023-02-24T05:31:22.406Z,4.43
2023-02-24T05:33:49.754Z,4.43
2023-02-24T05:36:17.143Z,4.39
2023-02-24T05:38:43.948Z,4.41
2023-02-24T05:41:12.539Z,4.42
2023-02-24T05:43:38.853Z,4.42
2023-02-24T05:46:05.182Z,4.40
2023-02-24T05:48:31.462Z,4.43
2023-02-24T05:50:57.787Z,4.42
2023-02-24T05:53:24.090Z,4.39
2023-02-24T05:55:50.400Z,4.33
2023-02-24T05:58:18.059Z,4.37
2023-02-24T06:00:44.358Z,4.31
2023-02-24T06:03:10.722Z,4.37
2023-02-24T06:05:37.046Z,4.34
2023-02-24T06:08:03.322Z,4.33
2023-02-24T06:10:30.438Z,4.28
2023-02-24T06:12:56.885Z,4.26
2023-02-24T06:15:24.593Z,4.29
2023-02-24T06:17:50.902Z,4.26
2023-02-24T06:20:17.279Z,4.22
2023-02-24T06:22:43.589Z,4.19
2023-02-24T06:25:10.355Z,4.18
2023-02-24T06:27:36.688Z,4.18
2023-02-24T06:30:03.303Z,4.19
2023-02-24T06:32:31.143Z,4.18
2023-02-24T06:34:57.639Z,4.21
2023-02-24T06:37:24.108Z,4.17
2023-02-24T06:39:50.450Z,4.11
2023-02-24T06:42:16.787Z,4.09
2023-02-24T06:44:43.146Z,4.07
2023-02-24T06:47:11.048Z,4.09
2023-02-24T06:49:38.719Z,4.09
2023-02-24T06:52:05.418Z,4.08
2023-02-24T06:54:31.908Z,4.02
2023-02-24T06:56:58.795Z,3.97
2023-02-24T06:59:25.448Z,3.99
2023-02-24T07:01:51.755Z,3.97
2023-02-24T07:04:18.224Z,3.96
2023-02-24T07:06:46.816Z,4.00
2023-02-24T07:09:14.055Z,3.97
2023-02-24T07:11:41.611Z,3.94
2023-02-24T07:14:07.976Z,3.97
2023-02-24T07:16:34.766Z,3.98
2023-02-24T07:19:02.223Z,3.97
2023-02-24T07:21:29.729Z,3.97
2023-02-24T07:23:59.125Z,3.98
2023-02-24T07:26:26.383Z,3.99
2023-02-24T07:28:53.426Z,3.99
2023-02-24T07:31:22.511Z,4.01
2023-02-24T07:33:49.534Z,4.01
2023-02-24T07:36:16.952Z,4.04
2023-02-24T07:38:43.906Z,4.03
2023-02-24T07:41:12.846Z,4.06
2023-02-24T07:43:40.005Z,4.10
2023-02-24T07:46:07.372Z,4.10
2023-02-24T07:48:33.842Z,4.17
2023-02-24T07:51:00.299Z,4.15
2023-02-24T07:53:26.621Z,4.14
2023-02-24T07:55:52.939Z,4.17
2023-02-24T07:58:20.600Z,4.22
2023-02-24T08:00:46.870Z,4.20
2023-02-24T08:03:13.489Z,4.32
2023-02-24T08:05:39.831Z,4.29
2023-02-24T08:08:06.176Z,4.31
2023-02-24T08:10:32.491Z,4.30
2023-02-24T08:12:58.831Z,4.35
2023-02-24T08:15:26.751Z,4.36
2023-02-24T08:17:53.847Z,4.36
2023-02-24T08:20:20.508Z,4.38
2023-02-24T08:22:48.773Z,4.45
2023-02-24T08:25:16.112Z,4.43
2023-02-24T08:27:42.496Z,4.47
2023-02-24T08:30:09.600Z,4.51
2023-02-24T08:32:38.452Z,4.62
2023-02-24T08:35:06.804Z,4.63
2023-02-24T08:37:34.299Z,4.58
2023-02-24T08:40:00.695Z,4.63
2023-02-24T08:42:27.041Z,4.70
2023-02-24T08:44:53.370Z,4.73
2023-02-24T08:47:19.678Z,4.67
2023-02-24T08:49:47.352Z,4.74
2023-02-24T08:52:13.673Z,4.79
2023-02-24T08:54:40.003Z,4.79
2023-02-24T08:57:06.341Z,4.85
2023-02-24T08:59:32.682Z,4.93
2023-02-24T09:02:04.676Z,4.96
2023-02-24T09:04:31.438Z,5.03
2023-02-24T09:07:11.234Z,5.10
2023-02-24T09:09:38.326Z,5.18
2023-02-24T09:12:04.628Z,5.20
2023-02-24T09:14:31.785Z,5.29
2023-02-24T09:16:58.888Z,5.23
2023-02-24T09:19:25.211Z,5.26
2023-02-24T09:21:51.494Z,5.29
2023-02-24T09:24:19.151Z,5.42
2023-02-24T09:26:45.461Z,5.46
2023-02-24T09:29:11.773Z,5.52
2023-02-24T09:31:38.194Z,5.56
2023-02-24T09:34:04.568Z,5.63
2023-02-24T09:36:30.948Z,5.63
2023-02-24T09:38:58.132Z,5.62
2023-02-24T09:41:27.860Z,5.64
2023-02-24T09:43:54.210Z,5.67
2023-02-24T09:46:20.721Z,5.71
2023-02-24T09:48:51.311Z,5.72
2023-02-24T09:51:17.789Z,5.70
2023-02-24T09:53:44.105Z,5.70
2023-02-24T09:56:16.448Z,5.70
2023-02-24T09:58:46.681Z,5.75
2023-02-24T10:01:20.839Z,5.72
2023-02-24T10:03:51.729Z,5.72
2023-02-24T10:06:19.390Z,5.78
2023-02-24T10:08:48.052Z,5.81
2023-02-24T10:11:14.588Z,5.73
2023-02-24T10:13:46.339Z,5.87
2023-02-24T10:16:16.452Z,5.79
2023-02-24T10:18:45.124Z,5.81
2023-02-24T10:21:15.311Z,5.78
2023-02-24T10:23:48.656Z,5.84
2023-02-24T10:26:23.234Z,5.93
2023-02-24T10:28:55.628Z,5.81
2023-02-24T10:31:27.504Z,5.85
2023-02-24T10:33:56.281Z,5.81
2023-02-24T10:36:23.802Z,5.82
2023-02-24T10:38:50.139Z,5.85
2023-02-24T10:41:16.698Z,5.72
2023-02-24T10:43:53.003Z,5.82
2023-02-24T10:46:35.026Z,5.84
2023-02-24T10:49:10.021Z,5.73
2023-02-24T10:51:37.277Z,5.85
2023-02-24T10:54:08.031Z,5.88
2023-02-24T10:56:34.389Z,5.83
2023-02-24T10:59:01.890Z,5.99
2023-02-24T11:01:30.782Z,5.89
2023-02-24T11:04:01.297Z,5.90
2023-02-24T11:06:28.716Z,6.00
2023-02-24T11:08:56.728Z,6.03
2023-02-24T11:11:24.377Z,6.00
2023-02-24T11:13:51.271Z,6.03
2023-02-24T11:16:17.811Z,6.13
2023-02-24T11:18:47.885Z,6.15
2023-02-24T11:21:16.203Z,6.17
2023-02-24T11:23:44.613Z,6.16
2023-02-24T11:26:14.476Z,6.20
2023-02-24T11:28:45.970Z,6.24
2023-02-24T11:31:20.081Z,6.31
2023-02-24T11:33:51.303Z,6.27
2023-02-24T11:36:22.356Z,6.20
2023-02-24T11:38:52.767Z,6.14
2023-02-24T11:41:22.925Z,6.21
2023-02-24T11:43:54.612Z,6.16
2023-02-24T11:46:22.045Z,6.10
2023-02-24T11:48:53.125Z,6.16
2023-02-24T11:51:21.009Z,6.11
2023-02-24T11:53:49.581Z,6.17
2023-02-24T11:56:18.044Z,6.33
2023-02-24T11:58:47.302Z,6.33
2023-02-24T12:01:16.480Z,6.25
2023-02-24T12:03:48.373Z,6.33
2023-02-24T12:06:19.262Z,6.21
2023-02-24T12:08:49.138Z,6.20
2023-02-24T12:11:17.930Z,6.27
2023-02-24T12:13:48.634Z,6.24
2023-02-24T12:16:17.416Z,6.38
2023-02-24T12:18:45.615Z,6.15
2023-02-24T12:21:14.918Z,6.16
2023-02-24T12:23:43.915Z,6.15
2023-02-24T12:26:17.060Z,6.16
2023-02-24T12:28:53.405Z,6.16
2023-02-24T12:31:26.016Z,6.20
2023-02-24T12:34:00.500Z,6.20
2023-02-24T12:36:52.534Z,6.16
2023-02-24T12:39:21.585Z,6.14
2023-02-24T12:41:55.077Z,6.06
2023-02-24T12:44:26.264Z,6.16
2023-02-24T12:46:56.049Z,6.13
2023-02-24T12:49:32.350Z,6.05
2023-02-24T12:52:04.195Z,6.07
2023-02-24T12:54:37.434Z,5.96
2023-02-24T12:57:08.808Z,6.14
2023-02-24T12:59:37.635Z,5.97
2023-02-24T13:02:06.224Z,6.20
2023-02-24T13:04:38.498Z,6.08
2023-02-24T13:07:09.997Z,6.02
2023-02-24T13:09:40.307Z,6.06
2023-02-24T13:12:12.379Z,5.99
2023-02-24T13:14:40.202Z,6.00
2023-02-24T13:17:15.923Z,5.97
2023-02-24T13:19:42.897Z,6.05
2023-02-24T13:22:20.135Z,5.93
2023-02-24T13:24:56.883Z,5.91
2023-02-24T13:27:24.471Z,5.97
2023-02-24T13:29:51.618Z,5.96
2023-02-24T13:32:25.504Z,5.92
2023-02-24T13:34:51.897Z,5.90
2023-02-24T13:37:26.075Z,5.90
2023-02-24T13:39:52.405Z,5.99
2023-02-24T13:42:23.067Z,6.02
2023-02-24T13:44:52.308Z,5.91
2023-02-24T13:47:36.388Z,5.93
2023-02-24T13:50:10.781Z,6.02
2023-02-24T13:52:42.615Z,5.97
2023-02-24T13:55:13.990Z,6.04
2023-02-24T13:57:57.994Z,5.92
2023-02-24T14:00:30.381Z,5.98
2023-02-24T14:02:57.064Z,5.94
2023-02-24T14:05:26.285Z,5.99
2023-02-24T14:07:53.541Z,5.92
2023-02-24T14:10:21.153Z,5.99
2023-02-24T14:12:48.234Z,5.98
2023-02-24T14:15:16.467Z,6.04
2023-02-24T14:17:44.170Z,5.95
2023-02-24T14:20:14.179Z,6.05
2023-02-24T14:22:43.523Z,6.03
2023-02-24T14:25:10.710Z,5.94
2023-02-24T14:27:37.428Z,6.01
2023-02-24T14:30:04.130Z,5.96
2023-02-24T14:32:32.601Z,6.02
2023-02-24T14:35:00.272Z,6.12
2023-02-24T14:37:28.120Z,6.29
2023-02-24T14:39:55.344Z,6.24
2023-02-24T14:42:21.995Z,6.27
2023-02-24T14:44:49.189Z,6.30
2023-02-24T14:47:16.101Z,6.33
2023-02-24T14:49:42.542Z,6.40
2023-02-24T14:52:14.143Z,6.57
2023-02-24T14:54:43.303Z,6.61
2023-02-24T14:57:11.484Z,6.70
2023-02-24T14:59:39.816Z,6.74
2023-02-24T15:02:13.178Z,6.78
2023-02-24T15:04:40.764Z,6.83
2023-02-24T15:07:14.416Z,6.76
2023-02-24T15:09:42.982Z,6.70
2023-02-24T15:12:18.942Z,6.81
2023-02-24T15:14:48.755Z,6.68
2023-02-24T15:17:16.651Z,6.65
2023-02-24T15:19:43.439Z,6.66
2023-02-24T15:22:18.198Z,6.70
2023-02-24T15:24:45.888Z,6.62
2023-02-24T15:27:33.162Z,6.65
2023-02-24T15:30:00.705Z,6.69
2023-02-24T15:32:28.130Z,6.79
2023-02-24T15:34:54.611Z,6.84
2023-02-24T15:37:22.308Z,7.16
2023-02-24T15:39:51.290Z,7.50
2023-02-24T15:42:21.443Z,7.89
2023-02-24T15:44:51.766Z,8.00
2023-02-24T15:47:21.252Z,7.83
2023-02-24T15:49:47.588Z,7.64
2023-02-24T15:52:23.474Z,7.50
2023-02-24T15:54:51.165Z,7.24
2023-02-24T15:57:18.117Z,7.15
2023-02-24T15:59:44.636Z,7.22
2023-02-24T16:02:12.796Z,7.30
2023-02-24T16:04:39.132Z,7.17
2023-02-24T16:07:06.587Z,7.22
2023-02-24T16:09:34.844Z,7.20
2023-02-24T16:12:03.032Z,7.17
2023-02-24T16:14:29.334Z,7.21
2023-02-24T16:16:55.750Z,7.10
2023-02-24T16:19:22.087Z,7.07
2023-02-24T16:21:48.441Z,7.10
2023-02-24T16:24:14.767Z,6.97
2023-02-24T16:26:41.143Z,6.87
2023-02-24T16:29:12.129Z,6.74
2023-02-24T16:31:39.160Z,6.86
2023-02-24T16:34:05.961Z,6.82
2023-02-24T16:36:32.259Z,6.81
2023-02-24T16:38:58.574Z,6.70
2023-02-24T16:41:24.858Z,6.60
2023-02-24T16:43:51.213Z,6.51
2023-02-24T16:46:20.052Z,6.38
2023-02-24T16:48:47.673Z,6.45
2023-02-24T16:51:14.626Z,6.35
2023-02-24T16:53:41.018Z,6.22
2023-02-24T16:56:07.755Z,6.18
2023-02-24T16:58:34.075Z,6.04
2023-02-24T17:01:01.157Z,6.10
2023-02-24T17:03:31.079Z,6.09
2023-02-24T17:05:57.421Z,5.97
2023-02-24T17:08:23.986Z,5.92
2023-02-24T17:10:50.660Z,5.83
2023-02-24T17:13:18.429Z,5.85
2023-02-24T17:15:44.968Z,5.74
2023-02-24T17:18:11.651Z,5.67
2023-02-24T17:20:41.694Z,5.64
2023-02-24T17:23:09.461Z,5.65
2023-02-24T17:25:35.760Z,5.62
2023-02-24T17:28:03.393Z,5.61
2023-02-24T17:30:32.091Z,5.72
2023-02-24T17:32:58.492Z,5.77
2023-02-24T17:35:24.947Z,5.69
2023-02-24T17:37:52.982Z,5.84
2023-02-24T17:40:19.536Z,5.84
2023-02-24T17:42:45.858Z,5.99
2023-02-24T17:45:12.795Z,5.97
2023-02-24T17:47:39.426Z,6.00
2023-02-24T17:50:06.424Z,5.96
2023-02-24T17:52:33.004Z,6.00
2023-02-24T17:55:00.722Z,6.10
2023-02-24T17:57:27.073Z,6.06
2023-02-24T17:59:53.413Z,6.04
2023-02-24T18:02:19.808Z,6.13
2023-02-24T18:04:48.742Z,6.04
2023-02-24T18:07:15.163Z,6.00
2023-02-24T18:09:41.603Z,5.81
2023-02-24T18:12:09.278Z,5.95
2023-02-24T18:14:35.598Z,5.96
2023-02-24T18:17:01.880Z,5.96
2023-02-24T18:19:28.202Z,5.95
2023-02-24T18:21:54.503Z,5.81
2023-02-24T18:24:20.828Z,5.75
2023-02-24T18:26:47.119Z,5.71
2023-02-24T18:29:14.794Z,5.79
2023-02-24T18:31:41.419Z,5.93
2023-02-24T18:34:07.816Z,5.87
2023-02-24T18:36:34.259Z,5.85
2023-02-24T18:39:00.633Z,5.98
2023-02-24T18:41:27.238Z,5.96
2023-02-24T18:43:54.657Z,5.98
2023-02-24T18:46:23.522Z,6.09
2023-02-24T18:48:50.038Z,5.92
2023-02-24T18:51:17.780Z,5.98
2023-02-24T18:53:44.495Z,5.98
2023-02-24T18:56:12.824Z,5.84
2023-02-24T18:58:39.210Z,5.81
2023-02-24T19:01:10.434Z,5.81
2023-02-24T19:03:38.063Z,5.73
2023-02-24T19:06:04.523Z,5.78
2023-02-24T19:08:30.836Z,5.75
2023-02-24T19:10:57.216Z,5.82
2023-02-24T19:13:23.510Z,5.74
2023-02-24T19:15:50.118Z,5.72
2023-02-24T19:18:16.561Z,5.85
2023-02-24T19:20:44.334Z,5.89
2023-02-24T19:23:10.676Z,5.93
2023-02-24T19:25:37.043Z,5.84
2023-02-24T19:28:03.434Z,5.87
2023-02-24T19:30:29.764Z,5.85
2023-02-24T19:32:56.173Z,5.92
2023-02-24T19:35:22.549Z,5.94
2023-02-24T19:37:50.223Z,5.90
2023-02-24T19:40:16.678Z,5.94
2023-02-24T19:42:43.009Z,5.79
2023-02-24T19:45:09.696Z,5.74
2023-02-24T19:47:36.036Z,5.69
2023-02-24T19:50:02.351Z,5.61
2023-02-24T19:52:28.660Z,5.48
2023-02-24T19:54:56.338Z,5.45
2023-02-24T19:57:22.665Z,5.40
2023-02-24T19:59:49.500Z,5.37
2023-02-24T20:02:15.795Z,5.38
2023-02-24T20:04:42.111Z,5.34
2023-02-24T20:07:08.523Z,5.23
2023-02-24T20:09:34.854Z,5.12
2023-02-24T20:12:02.623Z,5.15
2023-02-24T20:14:29.647Z,5.04
2023-02-24T20:16:56.053Z,4.98
2023-02-24T20:19:22.384Z,4.85
2023-02-24T20:21:48.685Z,4.76
2023-02-24T20:24:16.200Z,4.68
2023-02-24T20:26:43.902Z,4.62
2023-02-24T20:29:11.642Z,4.60
2023-02-24T20:31:38.023Z,4.58
2023-02-24T20:34:05.747Z,4.53
2023-02-24T20:36:32.249Z,4.50
2023-02-24T20:38:59.021Z,4.48
2023-02-24T20:41:26.166Z,4.42
2023-02-24T20:43:52.466Z,4.61
2023-02-24T20:46:21.395Z,4.55
2023-02-24T20:48:47.905Z,4.53
2023-02-24T20:51:14.222Z,4.62
2023-02-24T20:53:55.602Z,4.59
2023-02-24T20:56:23.404Z,4.61
2023-02-24T20:58:50.975Z,4.58
2023-02-24T21:01:18.640Z,4.61
2023-02-24T21:03:46.529Z,4.64
2023-02-24T21:06:13.692Z,4.61
2023-02-24T21:08:40.210Z,4.59
2023-02-24T21:11:08.888Z,4.64
2023-02-24T21:13:39.119Z,4.62
2023-02-24T21:16:06.620Z,4.71
2023-02-24T21:18:32.963Z,4.73
2023-02-24T21:21:00.596Z,4.67
2023-02-24T21:23:27.321Z,4.67
2023-02-24T21:25:53.675Z,4.86
2023-02-24T21:28:20.337Z,4.88
2023-02-24T21:30:47.053Z,4.93
2023-02-24T21:33:13.492Z,4.85
2023-02-24T21:35:39.796Z,4.98
2023-02-24T21:38:07.469Z,5.08
2023-02-24T21:40:34.114Z,5.05
2023-02-24T21:43:00.432Z,5.08
2023-02-24T21:45:26.984Z,5.12
2023-02-24T21:47:54.011Z,5.03
2023-02-24T21:50:21.009Z,5.07
2023-02-24T21:52:47.315Z,5.00
2023-02-24T21:55:15.412Z,4.95
2023-02-24T21:57:43.289Z,4.85
2023-02-24T22:00:10.769Z,5.00
2023-02-24T22:02:37.071Z,5.05
2023-02-24T22:05:03.464Z,5.01
2023-02-24T22:07:29.754Z,5.05
2023-02-24T22:09:56.038Z,5.12
2023-02-24T22:12:23.700Z,5.18
2023-02-24T22:14:50.048Z,5.26
2023-02-24T22:17:16.424Z,5.17
2023-02-24T22:19:42.715Z,5.05
2023-02-24T22:22:09.036Z,5.06
2023-02-24T22:24:35.359Z,5.10
2023-02-24T22:27:01.676Z,5.13
2023-02-24T22:29:29.334Z,5.17
2023-02-24T22:31:55.748Z,5.18
2023-02-24T22:34:22.145Z,5.22
2023-02-24T22:36:48.439Z,5.13
2023-02-24T22:39:14.986Z,5.18
2023-02-24T22:41:41.274Z,5.11
2023-02-24T22:44:07.656Z,5.11
2023-02-24T22:46:36.343Z,5.02
2023-02-24T22:49:04.635Z,5.02
2023-02-24T22:51:31.012Z,5.10
2023-02-24T22:53:57.370Z,4.97
2023-02-24T22:56:25.295Z,5.03
2023-02-24T22:58:51.785Z,5.08
2023-02-24T23:01:19.203Z,5.06
2023-02-24T23:03:46.947Z,4.96
2023-02-24T23:06:14.050Z,5.03
2023-02-24T23:08:41.503Z,5.15
2023-02-24T23:11:09.219Z,5.10
2023-02-24T23:13:35.500Z,4.99
2023-02-24T23:16:02.023Z,4.92
2023-02-24T23:18:28.310Z,4.88
2023-02-24T23:20:58.368Z,4.80
2023-02-24T23:23:24.712Z,4.79
2023-02-24T23:25:51.400Z,4.78
2023-02-24T23:28:17.786Z,4.66
2023-02-24T23:30:44.145Z,4.64
2023-02-24T23:33:10.517Z,4.58
2023-02-24T23:35:36.885Z,4.48
2023-02-24T23:38:04.560Z,4.56
2023-02-24T23:40:35.954Z,4.59
2023-02-24T23:43:07.628Z,4.59
2023-02-24T23:45:36.162Z,4.48
2023-02-24T23:48:02.624Z,4.44
2023-02-24T23:50:28.975Z,4.39
2023-02-24T23:52:55.273Z,4.47
2023-02-24T23:55:22.898Z,4.41
2023-02-24T23:57:49.244Z,4.31
